Time;durP1;ratioP1;P1;durP2;ratioP2;P2;SDS_P1;SDS_P2;PMS_P1;PMS_P2;Temp;Humidity;BMP_temperature;BMP_pressure;BME280_temperature;BME280_humidity;BME280_pressure;Samples;Min_cycle;Max_cycle;Signal;HPM_P1;HPM_P2
2023/03/04 00:00:28;;;;;;;6.72;4.80;;;;;;;10.32;78.67;101576.75;5051763;28;20060;-86
2023/03/04 00:02:54;;;;;;;6.75;4.78;;;;;;;10.61;78.41;101622.22;5069007;28;20075;-85
2023/03/04 00:05:19;;;;;;;6.65;4.80;;;;;;;10.79;78.61;101646.06;5049973;28;20486;-86
2023/03/04 00:07:45;;;;;;;6.07;4.78;;;;;;;10.59;78.75;101614.28;5040304;28;20040;-86
2023/03/04 00:10:10;;;;;;;6.47;4.75;;;;;;;10.68;78.65;101636.59;5069055;28;20032;-86
2023/03/04 00:12:36;;;;;;;6.57;4.70;;;;;;;10.54;78.58;101614.75;5053555;28;20039;-86
2023/03/04 00:15:02;;;;;;;6.20;4.50;;;;;;;10.40;78.92;101595.56;5045691;28;20507;-86
2023/03/04 00:17:30;;;;;;;5.47;4.43;;;;;;;10.38;78.41;101590.22;5047382;28;20119;-86
2023/03/04 00:19:56;;;;;;;7.07;4.80;;;;;;;10.36;78.23;101575.25;5068319;28;20434;-86
2023/03/04 00:22:22;;;;;;;7.15;4.63;;;;;;;10.47;78.54;101591.66;5052229;28;20504;-86
2023/03/04 00:24:47;;;;;;;5.10;4.25;;;;;;;10.71;78.49;101652.47;5049443;28;20045;-86
2023/03/04 00:27:13;;;;;;;6.07;4.65;;;;;;;10.48;78.33;101607.44;5065342;28;20920;-86
2023/03/04 00:29:38;;;;;;;7.10;4.80;;;;;;;10.64;78.77;101640.69;5051280;28;20036;-87
2023/03/04 00:32:04;;;;;;;6.68;4.75;;;;;;;10.57;78.41;101628.94;5051101;28;20036;-84
2023/03/04 00:34:30;;;;;;;6.13;4.65;;;;;;;10.71;78.51;101640.34;5038289;28;20095;-85
2023/03/04 00:37:00;;;;;;;6.20;4.50;;;;;;;10.71;78.28;101635.09;5025728;28;20075;-85
2023/03/04 00:39:28;;;;;;;5.93;4.65;;;;;;;10.67;78.73;101625.25;5067193;28;20033;-85
2023/03/04 00:41:54;;;;;;;7.10;4.90;;;;;;;10.70;78.73;101633.28;5051131;28;20537;-85
2023/03/04 00:44:19;;;;;;;6.05;4.60;;;;;;;10.62;78.24;101603.13;5032994;28;20064;-86
2023/03/04 00:46:45;;;;;;;5.97;4.53;;;;;;;10.40;78.30;101569.44;5050943;28;20502;-85
2023/03/04 00:49:10;;;;;;;6.45;4.90;;;;;;;10.37;78.21;101550.94;5045586;28;20115;-85
2023/03/04 00:51:36;;;;;;;6.50;4.55;;;;;;;10.39;77.97;101554.56;5051973;28;20037;-85
2023/03/04 00:54:02;;;;;;;6.10;4.30;;;;;;;10.26;78.37;101538.84;5050698;28;20029;-86
2023/03/04 00:56:28;;;;;;;5.97;4.45;;;;;;;10.28;78.36;101540.75;5043706;28;20036;-85
2023/03/04 00:58:53;;;;;;;6.30;4.22;;;;;;;10.58;78.54;101581.13;5050294;28;20040;-86
2023/03/04 01:01:19;;;;;;;5.90;4.35;;;;;;;10.44;78.92;101557.53;5050605;28;20498;-86
2023/03/04 01:03:45;;;;;;;6.85;4.50;;;;;;;10.57;78.77;101581.94;5049030;28;20478;-86
2023/03/04 01:06:11;;;;;;;5.53;4.40;;;;;;;10.42;77.97;101549.56;5048029;28;20028;-85
2023/03/04 01:08:36;;;;;;;;;;;;;;;10.72;78.38;101592.50;5052344;28;20386;-86
2023/03/04 01:11:02;;;;;;;6.50;4.50;;;;;;;10.61;78.25;101579.53;5050897;28;19939;-84
2023/03/04 01:13:28;;;;;;;4.97;4.10;;;;;;;10.46;78.37;101554.19;5043168;28;20028;-85
2023/03/04 01:15:54;;;;;;;5.68;4.20;;;;;;;10.50;78.31;101558.81;5050622;28;20056;-85
2023/03/04 01:18:20;;;;;;;6.10;4.18;;;;;;;10.18;78.33;101510.53;5052027;28;20032;-85
2023/03/04 01:20:46;;;;;;;6.93;4.53;;;;;;;10.38;78.17;101547.56;5052091;28;20021;-86
2023/03/04 01:23:11;;;;;;;6.78;4.70;;;;;;;10.68;78.32;101581.75;5035022;28;20483;-85
2023/03/04 01:25:37;;;;;;;6.18;4.82;;;;;;;10.61;77.94;101574.31;5065760;28;20053;-85
2023/03/04 01:28:03;;;;;;;5.38;4.15;;;;;;;10.62;77.88;101587.44;5066575;28;20481;-86
2023/03/04 01:30:28;;;;;;;6.75;4.13;;;;;;;10.31;78.15;101534.91;5043729;28;20044;-85
2023/03/04 01:32:54;;;;;;;5.93;4.40;;;;;;;10.50;78.56;101579.72;5042810;28;20098;-86
2023/03/04 01:35:19;;;;;;;6.10;4.40;;;;;;;10.58;78.47;101583.75;5047014;28;20482;-86
2023/03/04 01:37:45;;;;;;;6.18;4.22;;;;;;;10.48;78.77;101569.97;5044521;28;20041;-86
2023/03/04 01:40:12;;;;;;;6.68;4.28;;;;;;;10.49;78.44;101561.31;5049613;28;20036;-85
2023/03/04 01:42:37;;;;;;;5.50;4.20;;;;;;;10.47;78.15;101553.38;5040244;28;20052;-85
2023/03/04 01:45:04;;;;;;;6.35;4.40;;;;;;;10.65;77.97;101592.91;5049780;28;20033;-85
2023/03/04 01:47:30;;;;;;;5.38;4.30;;;;;;;10.43;78.30;101553.06;5050395;28;20159;-85
2023/03/04 01:49:57;;;;;;;6.38;4.50;;;;;;;10.67;78.04;101592.97;5049138;28;20449;-86
2023/03/04 01:52:23;;;;;;;5.28;4.20;;;;;;;10.57;78.22;101592.38;5066284;28;20029;-85
2023/03/04 01:54:49;;;;;;;6.18;4.43;;;;;;;10.31;77.99;101551.47;5038467;28;20037;-86
2023/03/04 01:57:20;;;;;;;6.13;4.35;;;;;;;10.52;78.39;101572.91;5046455;28;20049;-86
2023/03/04 01:59:47;;;;;;;5.82;4.47;;;;;;;10.47;78.49;101573.38;5036614;28;20034;-85
2023/03/04 02:02:13;;;;;;;5.78;4.32;;;;;;;10.64;78.11;101587.56;5029603;28;20036;-85
2023/03/04 02:04:40;;;;;;;5.47;4.10;;;;;;;10.36;78.16;101557.88;5044323;28;20037;-86
2023/03/04 02:07:06;;;;;;;6.70;4.50;;;;;;;10.62;78.20;101597.00;5049552;28;20039;-86
2023/03/04 02:09:32;;;;;;;5.47;4.07;;;;;;;10.62;78.44;101597.91;5045699;28;20088;-86
2023/03/04 02:11:58;;;;;;;6.22;4.30;;;;;;;10.42;78.29;101564.34;5064268;28;20029;-86
2023/03/04 02:14:24;;;;;;;6.05;4.20;;;;;;;10.67;77.99;101604.34;5045104;28;20064;-85
2023/03/04 02:16:50;;;;;;;7.38;4.80;;;;;;;10.33;77.59;101555.09;5049305;28;20032;-86
2023/03/04 02:19:39;;;;;;;5.43;4.07;;;;;;;10.61;78.15;101622.22;5051154;28;20029;-86
2023/03/04 02:22:04;;;;;;;5.35;4.15;;;;;;;10.54;78.04;101604.31;5037583;28;20037;-86
2023/03/04 02:24:42;;;;;;;6.70;4.47;;;;;;;10.58;78.19;101614.16;5032194;28;20052;-86
2023/03/04 02:27:08;;;;;;;5.95;4.32;;;;;;;10.44;78.35;101600.19;5049684;28;20056;-85
2023/03/04 02:29:34;;;;;;;5.97;4.32;;;;;;;10.35;78.36;101582.19;5050093;28;20421;-86
2023/03/04 02:31:59;;;;;;;5.63;4.43;;;;;;;10.52;78.06;101614.69;5049185;28;20033;-86
2023/03/04 02:34:32;;;;;;;6.28;4.25;;;;;;;10.44;78.01;101579.31;5045806;28;20100;-85
2023/03/04 02:36:58;;;;;;;5.60;4.15;;;;;;;10.46;77.90;101595.97;5037982;28;20033;-86
2023/03/04 02:39:34;;;;;;;5.68;4.13;;;;;;;10.58;77.98;101625.53;5054641;28;20056;-86
2023/03/04 02:42:00;;;;;;;5.55;4.47;;;;;;;10.58;77.94;101620.31;5062048;28;20029;-86
2023/03/04 02:44:31;;;;;;;6.22;4.18;;;;;;;10.54;78.21;101615.69;5048108;28;20052;-85
2023/03/04 02:46:57;;;;;;;6.38;4.22;;;;;;;10.46;78.30;101600.31;5048568;28;20039;-85
2023/03/04 02:49:25;;;;;;;5.72;4.18;;;;;;;10.54;78.14;101614.75;5049569;28;20426;-85
2023/03/04 02:52:13;;;;;;;5.57;4.20;;;;;;;10.58;78.04;101616.78;5049583;28;20029;-85
2023/03/04 02:54:39;;;;;;;6.40;4.70;;;;;;;10.42;77.76;101583.50;5053911;28;20036;-85
2023/03/04 02:57:07;;;;;;;6.65;4.38;;;;;;;10.48;78.04;101604.81;5048354;28;20033;-85
2023/03/04 02:59:34;;;;;;;6.38;4.20;;;;;;;10.55;78.26;101612.25;5049468;28;20406;-85
2023/03/04 03:02:00;;;;;;;6.03;4.30;;;;;;;10.38;77.94;101585.00;5047390;28;20060;-85
2023/03/04 03:04:26;;;;;;;6.00;4.38;;;;;;;10.36;77.69;101576.16;5019533;28;20021;-86
2023/03/04 03:06:52;;;;;;;7.07;4.20;;;;;;;10.46;78.17;101603.81;5033435;28;20417;-86
2023/03/04 03:09:19;;;;;;;6.57;4.45;;;;;;;10.55;77.87;101612.25;5051010;28;20107;-87
2023/03/04 03:11:44;;;;;;;6.05;4.18;;;;;;;10.23;77.90;101564.75;5053493;28;20490;-86
2023/03/04 03:14:10;;;;;;;5.57;4.10;;;;;;;10.49;78.02;101608.31;5053758;28;20061;-85
2023/03/04 03:16:35;;;;;;;6.57;4.38;;;;;;;10.09;77.99;101540.31;5048961;28;20114;-86
2023/03/04 03:19:01;;;;;;;5.70;4.28;;;;;;;10.22;77.80;101565.53;5040473;28;20036;-85
2023/03/04 03:21:27;;;;;;;6.50;4.50;;;;;;;10.48;77.89;101619.59;5054538;28;20052;-87
2023/03/04 03:23:52;;;;;;;6.53;4.45;;;;;;;10.53;77.69;101624.31;5051886;28;20045;-87
2023/03/04 03:26:18;;;;;;;5.65;4.20;;;;;;;10.54;77.98;101626.13;5054495;28;20044;-87
2023/03/04 03:28:44;;;;;;;6.57;4.63;;;;;;;10.54;77.60;101628.75;5051712;28;20151;-86
2023/03/04 03:31:10;;;;;;;5.82;4.40;;;;;;;10.35;77.74;101583.88;5052917;28;20514;-87
2023/03/04 03:33:36;;;;;;;6.43;4.53;;;;;;;10.53;77.91;101619.09;5048124;28;20105;-87
2023/03/04 03:36:02;;;;;;;5.22;4.03;;;;;;;10.23;77.89;101573.50;5028522;28;20418;-87
2023/03/04 03:38:27;;;;;;;5.88;4.43;;;;;;;10.29;77.71;101583.47;5051949;28;20035;-87
2023/03/04 03:41:19;;;;;;;6.10;4.38;;;;;;;10.59;77.69;101616.88;5053163;28;20029;-87
2023/03/04 03:43:45;;;;;;;6.20;4.28;;;;;;;10.44;77.93;101591.47;5037211;28;20052;-84
2023/03/04 03:46:10;;;;;;;5.22;3.92;;;;;;;10.56;77.71;101608.88;5049640;28;20459;-85
2023/03/04 03:48:36;;;;;;;5.80;4.25;;;;;;;10.44;77.93;101589.75;5035332;28;20029;-85
2023/03/04 03:51:02;;;;;;;5.65;4.25;;;;;;;10.37;77.74;101587.50;5069187;28;20032;-84
2023/03/04 03:53:27;;;;;;;6.22;4.30;;;;;;;10.41;78.20;101597.34;5051587;28;20025;-85
2023/03/04 03:55:53;;;;;;;6.15;4.40;;;;;;;10.27;77.56;101570.28;5048550;28;20027;-85
2023/03/04 03:58:19;;;;;;;5.93;4.32;;;;;;;10.25;77.85;101568.38;5054056;28;20044;-86
2023/03/04 04:00:44;;;;;;;5.55;4.25;;;;;;;10.50;77.65;101602.31;5052382;28;20035;-86
2023/03/04 04:03:13;;;;;;;6.28;4.07;;;;;;;10.26;77.51;101573.69;5052593;28;20032;-87
2023/03/04 04:05:39;;;;;;;7.32;4.90;;;;;;;10.20;77.48;101557.59;5046967;28;20076;-85
2023/03/04 04:08:04;;;;;;;5.30;4.10;;;;;;;10.40;77.65;101592.94;5049280;28;20041;-87
2023/03/04 04:10:30;;;;;;;6.40;4.57;;;;;;;10.29;78.02;101575.63;5067481;28;20033;-87
2023/03/04 04:12:56;;;;;;;6.03;4.20;;;;;;;10.49;77.71;101616.16;5052427;28;20036;-84
2023/03/04 04:15:21;;;;;;;5.80;4.22;;;;;;;10.06;77.51;101537.53;5044060;28;20044;-84
2023/03/04 04:17:47;;;;;;;5.82;4.43;;;;;;;10.21;77.83;101564.66;5039452;28;20034;-85
2023/03/04 04:20:12;;;;;;;6.50;4.57;;;;;;;10.28;77.48;101573.81;5052368;28;20033;-86
2023/03/04 04:22:38;;;;;;;7.05;4.60;;;;;;;10.28;77.44;101581.63;5053182;28;20133;-85
2023/03/04 04:25:04;;;;;;;7.68;4.97;;;;;;;10.39;77.50;101614.63;5050255;28;20049;-86
2023/03/04 04:27:29;;;;;;;6.90;4.78;;;;;;;10.21;77.64;101585.53;5053378;28;20033;-85
2023/03/04 04:29:55;;;;;;;6.07;4.78;;;;;;;10.22;77.56;101581.22;5052347;28;20086;-85
2023/03/04 04:32:20;;;;;;;8.13;5.18;;;;;;;10.29;77.58;101599.13;5052758;28;20041;-85
2023/03/04 04:34:46;;;;;;;6.43;4.65;;;;;;;10.30;77.74;101612.28;5046755;28;20043;-84
2023/03/04 04:37:12;;;;;;;7.47;4.82;;;;;;;10.46;77.69;101635.16;5043077;28;20033;-83
2023/03/04 04:39:37;;;;;;;7.03;4.75;;;;;;;10.34;77.14;101619.53;5046082;28;20182;-84
2023/03/04 04:42:03;;;;;;;6.07;4.35;;;;;;;10.20;77.16;101594.16;5032104;28;20035;-86
2023/03/04 04:44:28;;;;;;;7.53;4.85;;;;;;;10.32;77.36;101612.41;5030533;28;20032;-85
2023/03/04 04:46:54;;;;;;;6.35;4.68;;;;;;;10.42;77.28;101627.00;5050841;28;20050;-85
2023/03/04 04:49:19;;;;;;;7.53;4.95;;;;;;;10.46;77.47;101648.19;5052654;28;20023;-85
2023/03/04 04:51:45;;;;;;;6.82;4.78;;;;;;;10.37;77.58;101642.34;5052922;28;20478;-85
2023/03/04 04:54:13;;;;;;;5.82;4.60;;;;;;;10.37;77.73;101650.16;5041235;28;20060;-85
2023/03/04 04:56:38;;;;;;;6.68;4.97;;;;;;;10.40;77.55;101653.00;5051339;28;20040;-86
2023/03/04 04:59:04;;;;;;;7.13;5.10;;;;;;;10.46;77.26;101658.66;5034093;28;20037;-85
2023/03/04 05:01:30;;;;;;;6.97;4.43;;;;;;;10.11;77.27;101599.63;5043043;28;20108;-84
2023/03/04 05:03:56;;;;;;;6.95;4.65;;;;;;;10.33;77.14;101628.19;5050312;28;20033;-85
2023/03/04 05:06:23;;;;;;;6.80;4.60;;;;;;;10.47;77.70;101646.50;5052518;28;20060;-84
2023/03/04 05:08:49;;;;;;;7.13;4.95;;;;;;;10.40;77.47;101637.34;5050837;28;20556;-85
2023/03/04 05:11:15;;;;;;;;;;;;;;;10.50;77.28;101651.94;5052938;28;20037;-87
2023/03/04 05:13:41;;;;;;;6.30;4.45;;;;;;;10.38;77.31;101645.06;5050650;28;19919;-86
2023/03/04 05:16:07;;;;;;;8.48;4.95;;;;;;;10.31;77.76;101623.66;5051160;28;20059;-86
2023/03/04 05:18:32;;;;;;;6.97;4.70;;;;;;;10.43;77.68;101655.81;5034171;28;20036;-87
2023/03/04 05:21:00;;;;;;;6.38;4.60;;;;;;;10.43;77.68;101654.91;5050900;28;20029;-84
2023/03/04 05:23:27;;;;;;;7.85;4.85;;;;;;;10.45;77.47;101651.59;5049934;28;20033;-84
2023/03/04 05:25:53;;;;;;;7.97;4.82;;;;;;;10.44;77.64;101647.19;5071084;28;20056;-84
2023/03/04 05:28:18;;;;;;;6.63;4.63;;;;;;;10.37;77.25;101639.72;5063039;28;20059;-84
2023/03/04 05:30:45;;;;;;;7.68;5.03;;;;;;;10.14;77.23;101604.19;5061757;28;20044;-84
2023/03/04 05:33:12;;;;;;;6.07;4.45;;;;;;;10.39;77.58;101641.66;5033621;28;20048;-85
2023/03/04 05:35:40;;;;;;;6.13;4.53;;;;;;;10.41;77.25;101653.91;5053828;28;20020;-85
2023/03/04 05:38:08;;;;;;;6.82;4.80;;;;;;;10.43;77.34;101652.31;5053722;28;20077;-85
2023/03/04 05:40:34;;;;;;;5.25;4.15;;;;;;;10.24;77.34;101622.28;5070698;28;20417;-84
2023/03/04 05:43:00;;;;;;;6.60;4.55;;;;;;;10.38;77.17;101647.66;5054022;28;20024;-86
2023/03/04 05:45:26;;;;;;;6.53;4.75;;;;;;;10.03;76.79;101573.81;5053002;28;20100;-86
2023/03/04 05:47:52;;;;;;;;;;;;;;;10.47;77.00;101655.22;5070417;28;20032;-85
2023/03/04 05:50:18;;;;;;;6.25;4.65;;;;;;;10.25;76.94;101617.97;5053176;28;20282;-86
2023/03/04 05:52:44;;;;;;;7.75;5.07;;;;;;;10.24;77.15;101616.16;5053209;28;20024;-85
2023/03/04 05:55:10;;;;;;;6.22;4.70;;;;;;;10.15;76.99;101604.28;5063872;28;20379;-85
2023/03/04 05:57:35;;;;;;;6.57;4.45;;;;;;;10.23;77.42;101624.81;5051680;28;20052;-84
2023/03/04 06:00:04;;;;;;;6.40;4.53;;;;;;;10.44;77.40;101654.13;5051780;28;20081;-86
2023/03/04 06:02:29;;;;;;;6.45;4.60;;;;;;;10.22;77.16;101622.97;5048176;28;20040;-85
2023/03/04 06:04:55;;;;;;;6.63;4.85;;;;;;;10.22;77.29;101620.38;5045186;28;20072;-85
2023/03/04 06:07:21;;;;;;;6.53;4.85;;;;;;;10.08;77.29;101594.22;5049599;28;20064;-85
2023/03/04 06:09:46;;;;;;;6.28;4.82;;;;;;;10.16;77.11;101613.94;5050861;28;20028;-85
2023/03/04 06:12:12;;;;;;;7.07;4.90;;;;;;;10.32;77.27;101636.81;5064078;28;20040;-84
2023/03/04 06:14:37;;;;;;;8.03;5.10;;;;;;;10.01;77.19;101578.94;5064535;28;20293;-85
2023/03/04 06:17:03;;;;;;;7.13;4.72;;;;;;;10.43;77.26;101663.66;5049049;28;20299;-84
2023/03/04 06:19:29;;;;;;;5.57;4.10;;;;;;;10.14;77.11;101610.31;5050285;28;20032;-85
2023/03/04 06:21:55;;;;;;;5.88;4.00;;;;;;;10.14;77.00;101610.31;5060677;28;20098;-86
2023/03/04 06:24:21;;;;;;;6.90;5.05;;;;;;;10.38;77.25;101662.44;5046829;28;20048;-84
2023/03/04 06:26:46;;;;;;;7.57;4.75;;;;;;;10.35;77.26;101662.22;5028491;28;20036;-84
2023/03/04 06:29:12;;;;;;;7.35;4.80;;;;;;;9.95;76.82;101579.44;5047412;28;20548;-84
2023/03/04 06:31:40;;;;;;;6.87;4.33;;;;;;;10.45;76.77;101662.03;5045191;28;20041;-83
2023/03/04 06:34:07;;;;;;;7.07;4.32;;;;;;;10.25;77.25;101641.47;5043152;28;20299;-84
2023/03/04 06:36:33;;;;;;;5.55;4.22;;;;;;;10.43;76.73;101666.25;5045283;28;20032;-85
2023/03/04 06:39:02;;;;;;;6.55;4.40;;;;;;;10.28;77.27;101634.75;5044327;28;20512;-84
2023/03/04 06:41:27;;;;;;;6.32;4.38;;;;;;;10.42;77.34;101664.47;5062349;28;20060;-84
2023/03/04 06:43:53;;;;;;;5.25;4.32;;;;;;;10.19;77.04;101621.06;5047756;28;20499;-85
2023/03/04 06:46:20;;;;;;;7.93;4.53;;;;;;;10.32;77.05;101642.03;5045597;28;20051;-85
2023/03/04 06:48:46;;;;;;;7.00;4.47;;;;;;;10.18;77.35;101616.63;5032418;28;20411;-85
2023/03/04 06:51:11;;;;;;;6.18;4.18;;;;;;;10.26;77.03;101625.00;5056873;28;20036;-85
2023/03/04 06:53:38;;;;;;;5.85;4.18;;;;;;;10.44;76.99;101660.25;5027613;28;20029;-86
2023/03/04 06:56:05;;;;;;;6.07;4.57;;;;;;;10.39;76.68;101659.00;5047483;28;20032;-86
2023/03/04 06:58:30;;;;;;;7.65;4.90;;;;;;;10.30;77.28;101635.78;5046599;28;20037;-85
2023/03/04 07:00:56;;;;;;;5.53;4.00;;;;;;;10.30;76.65;101632.28;5025464;28;20032;-84
2023/03/04 07:03:22;;;;;;;6.40;4.72;;;;;;;10.25;76.93;101623.22;5041877;28;20112;-84
2023/03/04 07:05:48;;;;;;;6.88;4.63;;;;;;;10.15;76.92;101625.16;5045339;28;20017;-85
2023/03/04 07:08:13;;;;;;;7.03;4.80;;;;;;;10.28;77.09;101639.97;5047868;28;20098;-84
2023/03/04 07:10:39;;;;;;;6.28;4.47;;;;;;;10.35;76.90;101652.69;5045566;28;20029;-83
2023/03/04 07:13:05;;;;;;;6.85;4.65;;;;;;;10.24;76.94;101637.94;5047280;28;20130;-86
2023/03/04 07:15:30;;;;;;;6.68;4.57;;;;;;;10.25;77.03;101636.25;5038326;28;20061;-89
2023/03/04 07:17:56;;;;;;;6.45;4.65;;;;;;;10.29;77.06;101635.66;5041114;28;20418;-87
2023/03/04 07:20:36;;;;;;;6.55;4.65;;;;;;;10.44;76.96;101656.75;5025529;28;20059;-88
2023/03/04 07:23:03;;;;;;;6.68;4.82;;;;;;;10.27;76.82;101619.88;5057056;28;20032;-89
2023/03/04 07:25:34;;;;;;;6.95;4.78;;;;;;;10.43;76.76;101645.38;5037540;28;20473;-89
2023/03/04 07:28:00;;;;;;;7.43;5.07;;;;;;;10.33;76.81;101622.06;5025998;28;20690;-87
2023/03/04 07:30:25;;;;;;;7.78;5.22;;;;;;;10.44;76.88;101641.06;5046192;28;20036;-86
2023/03/04 07:32:51;;;;;;;6.80;4.72;;;;;;;10.21;76.82;101608.13;5044801;28;20033;-86
2023/03/04 07:35:16;;;;;;;7.07;4.57;;;;;;;10.27;76.81;101614.66;5043026;28;20107;-92
2023/03/04 07:37:43;;;;;;;6.78;4.90;;;;;;;9.98;77.17;101561.34;5048236;28;20502;-90
2023/03/04 07:40:09;;;;;;;6.68;4.60;;;;;;;10.07;76.85;101578.44;5047861;28;20044;-89
2023/03/04 07:42:37;;;;;;;;;;;;;;;10.41;76.80;101635.63;5042086;28;20033;-90
2023/03/04 07:45:05;;;;;;;;;;;;;;;10.39;76.88;101633.81;5040654;28;20378;-90
2023/03/04 07:47:32;;;;;;;7.18;4.75;;;;;;;10.21;76.83;101609.03;5039734;28;20386;-88
2023/03/04 07:49:57;;;;;;;6.65;4.60;;;;;;;9.87;77.26;101561.44;5041500;28;20033;-88
2023/03/04 07:52:26;;;;;;;6.97;4.60;;;;;;;10.09;77.38;101601.25;5040960;28;20044;-86
2023/03/04 07:54:52;;;;;;;6.13;4.57;;;;;;;10.07;77.33;101599.34;5050510;28;20598;-88
2023/03/04 07:57:17;;;;;;;6.82;4.28;;;;;;;10.28;77.57;101632.13;5029968;28;20041;-88
2023/03/04 07:59:43;;;;;;;6.40;4.57;;;;;;;10.21;77.48;101616.84;5051029;28;20516;-87
2023/03/04 08:02:09;;;;;;;6.25;4.57;;;;;;;10.16;77.36;101608.72;5043411;28;20037;-89
2023/03/04 08:04:35;;;;;;;;;;;;;;;10.30;77.15;101627.06;5045918;28;20414;-89
2023/03/04 08:07:00;;;;;;;6.57;4.30;;;;;;;10.16;77.15;101610.44;5065885;28;19912;-90
2023/03/04 08:09:28;;;;;;;6.43;4.80;;;;;;;10.20;77.18;101625.47;5048693;28;20417;-90
2023/03/04 08:11:57;;;;;;;8.05;5.10;;;;;;;10.19;76.84;101628.91;5049488;28;20079;-90
2023/03/04 08:14:22;;;;;;;12.25;5.30;;;;;;;10.27;76.94;101648.59;5033704;28;20033;-88
2023/03/04 08:16:48;;;;;;;5.60;4.10;;;;;;;10.23;77.01;101630.03;5062033;28;20035;-89
2023/03/04 08:19:13;;;;;;;6.10;4.32;;;;;;;10.06;77.03;101593.22;5035632;28;20422;-89
2023/03/04 08:21:40;;;;;;;6.40;4.50;;;;;;;10.10;77.37;101604.78;5043430;28;20032;-88
2023/03/04 08:24:08;;;;;;;8.60;4.45;;;;;;;10.15;77.06;101606.88;5068405;28;20052;-88
2023/03/04 08:26:42;;;;;;;6.85;4.63;;;;;;;10.37;77.25;101648.47;5029774;28;20098;-88
2023/03/04 08:29:11;;;;;;;6.43;4.82;;;;;;;10.18;76.98;101608.78;5053003;28;20450;-89
2023/03/04 08:31:39;;;;;;;7.10;4.50;;;;;;;10.43;77.20;101637.53;5036261;28;20063;-88
2023/03/04 08:34:06;;;;;;;7.45;4.85;;;;;;;10.49;77.17;101650.13;5052789;28;20031;-89
2023/03/04 08:36:32;;;;;;;7.05;4.80;;;;;;;10.42;76.88;101637.44;5051268;28;20090;-90
2023/03/04 08:38:58;;;;;;;7.53;4.22;;;;;;;10.28;76.92;101603.41;5051817;28;20029;-89
2023/03/04 08:41:26;;;;;;;7.03;4.82;;;;;;;10.49;77.12;101645.78;5051076;28;20037;-90
2023/03/04 08:43:52;;;;;;;7.28;4.70;;;;;;;10.15;77.42;101580.78;5053143;28;20087;-90
2023/03/04 08:46:17;;;;;;;8.07;4.72;;;;;;;10.32;77.77;101602.84;5051655;28;20032;-89
2023/03/04 08:48:45;;;;;;;6.20;4.60;;;;;;;10.19;77.90;101588.03;5052131;28;20486;-89
2023/03/04 08:51:12;;;;;;;6.60;4.68;;;;;;;10.52;77.95;101635.56;5032300;28;20037;-90
2023/03/04 08:53:39;;;;;;;8.40;5.20;;;;;;;10.52;78.26;101632.97;5051435;28;20482;-89
2023/03/04 08:56:11;;;;;;;8.73;5.30;;;;;;;10.58;78.27;101630.75;5066919;28;20034;-90
2023/03/04 08:58:38;;;;;;;10.45;5.60;;;;;;;10.35;78.00;101591.72;5051485;28;20040;-88
2023/03/04 09:01:04;;;;;;;9.90;5.53;;;;;;;10.38;79.04;101603.28;5051030;28;20060;-88
2023/03/04 09:03:29;;;;;;;;;;;;;;;10.57;78.90;101628.03;5052399;28;20029;-89
2023/03/04 09:05:56;;;;;;;9.38;5.65;;;;;;;10.47;79.04;101607.31;5050609;28;19917;-89
2023/03/04 09:08:22;;;;;;;8.73;5.35;;;;;;;10.47;79.04;101597.78;5033690;28;20040;-88
2023/03/04 09:10:52;;;;;;;9.65;5.80;;;;;;;10.38;79.08;101568.44;5035102;28;20496;-89
2023/03/04 09:13:22;;;;;;;9.02;5.90;;;;;;;10.54;79.05;101602.63;5051976;28;20021;-89
2023/03/04 09:15:50;;;;;;;9.48;5.68;;;;;;;10.60;79.39;101602.13;5032016;28;20021;-88
2023/03/04 09:18:16;;;;;;;9.55;5.65;;;;;;;10.66;79.79;101609.47;5042369;28;20026;-87
2023/03/04 09:20:44;;;;;;;9.10;5.97;;;;;;;10.58;79.25;101594.19;5051766;28;20460;-89
2023/03/04 09:23:10;;;;;;;8.43;5.78;;;;;;;10.56;79.84;101581.81;5051569;28;20556;-88
2023/03/04 09:25:37;;;;;;;9.63;5.72;;;;;;;10.54;79.55;101571.28;5034939;28;20053;-88
2023/03/04 09:28:06;;;;;;;8.80;5.72;;;;;;;10.69;79.54;101576.63;5028703;28;20040;-89
2023/03/04 09:30:32;;;;;;;10.07;6.13;;;;;;;10.78;79.43;101581.56;5046276;28;20439;-89
2023/03/04 09:32:58;;;;;;;8.35;5.95;;;;;;;10.62;80.19;101561.34;5046889;28;20044;-89
2023/03/04 09:35:23;;;;;;;12.38;6.25;;;;;;;10.63;80.19;101554.44;5034900;28;20076;-89
2023/03/04 09:37:51;;;;;;;11.45;5.68;;;;;;;10.62;80.62;101550.00;5051348;28;20482;-89
2023/03/04 09:40:22;;;;;;;8.88;5.40;;;;;;;10.82;80.85;101567.00;5052062;28;20504;-89
2023/03/04 09:43:02;;;;;;;9.32;6.13;;;;;;;10.75;81.67;101560.44;5051066;28;20029;-89
2023/03/04 09:45:36;;;;;;;10.82;6.32;;;;;;;10.71;81.49;101538.44;5051141;28;20068;-90
2023/03/04 09:48:05;;;;;;;9.82;6.57;;;;;;;10.83;81.97;101553.13;5031803;28;20517;-89
2023/03/04 09:50:33;;;;;;;13.15;6.57;;;;;;;10.70;81.98;101534.00;5030014;28;20039;-88
2023/03/04 09:53:21;;;;;;;19.17;6.90;;;;;;;10.79;82.49;101538.94;5029859;28;20053;-89
2023/03/04 09:55:49;;;;;;;13.18;7.07;;;;;;;10.73;83.00;101536.84;5062326;28;20084;-88
2023/03/04 09:58:25;;;;;;;14.60;7.10;;;;;;;10.80;83.18;101536.44;5064110;28;20102;-88
2023/03/04 10:01:00;;;;;;;20.98;7.25;;;;;;;10.87;84.00;101542.06;5049641;28;20068;-88
2023/03/04 10:04:16;;;;;;;19.95;7.10;;;;;;;10.88;83.63;101536.94;5067642;28;20115;-89
2023/03/04 10:06:42;;;;;;;14.25;7.22;;;;;;;10.74;84.30;101496.84;5010418;28;20032;-88
2023/03/04 10:09:14;;;;;;;23.83;7.47;;;;;;;10.88;84.52;101507.25;5047215;28;20032;-88
2023/03/04 10:11:52;;;;;;;19.38;8.60;;;;;;;10.89;85.10;101504.75;5067333;28;20520;-89
2023/03/04 10:14:22;;;;;;;17.13;7.53;;;;;;;10.90;84.78;101503.03;5049443;28;20032;-89
2023/03/04 10:16:55;;;;;;;19.38;8.40;;;;;;;10.79;84.78;101490.22;5047158;28;20021;-90
2023/03/04 10:19:27;;;;;;;17.95;8.15;;;;;;;10.91;84.99;101505.75;5026735;28;20036;-89
2023/03/04 10:21:58;;;;;;;19.00;8.32;;;;;;;10.72;85.31;101458.38;5050865;28;20029;-88
2023/03/04 10:24:28;;;;;;;17.23;7.72;;;;;;;10.92;85.21;101497.13;5057352;28;20535;-89
2023/03/04 10:27:00;;;;;;;16.45;8.05;;;;;;;10.84;85.42;101481.75;5065643;28;20025;-89
2023/03/04 10:29:30;;;;;;;16.10;8.25;;;;;;;10.95;84.76;101489.47;5050756;28;20489;-90
2023/03/04 10:31:55;;;;;;;14.98;8.63;;;;;;;10.89;85.54;101468.19;5063154;28;20032;-88
2023/03/04 10:34:23;;;;;;;18.75;8.43;;;;;;;10.80;85.18;101449.31;5047317;28;20083;-90
2023/03/04 10:36:59;;;;;;;14.40;8.82;;;;;;;10.99;85.26;101474.91;5039967;28;20041;-88
2023/03/04 10:39:39;;;;;;;13.15;8.10;;;;;;;10.99;85.31;101469.69;5051623;28;20494;-89
2023/03/04 10:42:25;;;;;;;14.07;8.35;;;;;;;11.02;84.90;101469.88;5028208;28;20033;-90
2023/03/04 10:44:59;;;;;;;17.20;9.20;;;;;;;10.91;85.10;101444.78;5043596;28;20121;-89
2023/03/04 10:47:28;;;;;;;13.85;8.45;;;;;;;11.04;85.35;101463.03;5067010;28;20039;-89
2023/03/04 10:49:58;;;;;;;15.27;8.00;;;;;;;10.94;85.35;101437.09;5031561;28;20449;-90
2023/03/04 10:52:28;;;;;;;15.02;8.05;;;;;;;11.04;85.46;101443.84;5065531;28;20410;-89
2023/03/04 10:55:02;;;;;;;14.98;8.63;;;;;;;10.89;85.43;101404.56;5050112;28;20780;-89
2023/03/04 10:57:33;;;;;;;14.35;7.85;;;;;;;11.09;84.98;101431.94;5051143;28;20027;-89
2023/03/04 11:00:32;;;;;;;14.02;8.88;;;;;;;11.11;85.39;101426.03;5050511;28;20037;-89
2023/03/04 11:03:24;;;;;;;15.35;8.32;;;;;;;11.17;85.29;101420.25;5026556;28;20056;-90
2023/03/04 11:05:52;;;;;;;13.57;7.93;;;;;;;10.99;85.08;101383.44;5040541;28;20029;-90
2023/03/04 11:08:21;;;;;;;14.27;8.00;;;;;;;11.20;85.35;101410.91;5059583;28;20442;-90
2023/03/04 11:10:52;;;;;;;13.88;7.88;;;;;;;11.22;85.35;101413.63;5049601;28;20031;-91
2023/03/04 11:13:25;;;;;;;13.35;8.30;;;;;;;11.25;85.24;101410.28;5062881;28;20037;-91
2023/03/04 11:15:57;;;;;;;13.55;8.23;;;;;;;11.24;85.63;101401.53;5049583;28;20025;-91
2023/03/04 11:19:11;;;;;;;13.95;8.77;;;;;;;11.28;84.75;101403.53;5050571;28;20036;-90
2023/03/04 11:21:39;;;;;;;14.02;7.85;;;;;;;11.16;85.29;101379.25;5023172;28;20128;-91
2023/03/04 11:24:12;;;;;;;13.35;8.23;;;;;;;11.04;85.19;101370.66;5032368;28;20048;-91
2023/03/04 11:26:51;;;;;;;15.13;8.63;;;;;;;11.04;85.57;101357.59;5048708;28;20028;-90
2023/03/04 11:29:38;;;;;;;13.90;8.10;;;;;;;11.12;85.11;101367.69;5050712;28;20600;-90